Time;durP1;ratioP1;P1;durP2;ratioP2;P2;SDS_P1;SDS_P2;PMS_P1;PMS_P2;Temp;Humidity;BMP_temperature;BMP_pressure;BME280_temperature;BME280_humidity;BME280_pressure;Samples;Min_cycle;Max_cycle;Signal;HPM_P1;HPM_P2
2019/11/25 00:00:00;;;;;;;17;15.3;;;;;;;;;;;;;
2019/11/25 00:02:25;;;;;;;16;14.5;;;;;;;;;;;;;
2019/11/25 00:04:50;;;;;;;16.7;15;;;;;;;;;;;;;
2019/11/25 00:07:15;;;;;;;17.6;15.9;;;;;;;;;;;;;
2019/11/25 00:09:40;;;;;;;16.5;14.8;;;;;;;;;;;;;
2019/11/25 00:12:05;;;;;;;17.4;15.7;;;;;;;;;;;;;
2019/11/25 00:14:30;;;;;;;16.9;15.3;;;;;;;;;;;;;
2019/11/25 00:16:56;;;;;;;16.4;14.9;;;;;;;;;;;;;
2019/11/25 00:19:21;;;;;;;16.7;15.1;;;;;;;;;;;;;
2019/11/25 00:21:46;;;;;;;18.3;16.5;;;;;;;;;;;;;
2019/11/25 00:24:11;;;;;;;18.6;16.7;;;;;;;;;;;;;
2019/11/25 00:26:36;;;;;;;18.7;16.9;;;;;;;;;;;;;
2019/11/25 00:29:01;;;;;;;18.7;16.8;;;;;;;;;;;;;
2019/11/25 00:31:26;;;;;;;19;17;;;;;;;;;;;;;
2019/11/25 00:33:52;;;;;;;18.3;16.5;;;;;;;;;;;;;
2019/11/25 00:36:17;;;;;;;18.2;16.4;;;;;;;;;;;;;
2019/11/25 00:38:42;;;;;;;18.1;16.2;;;;;;;;;;;;;
2019/11/25 00:41:07;;;;;;;17.2;15.4;;;;;;;;;;;;;
2019/11/25 00:43:32;;;;;;;18.1;16.3;;;;;;;;;;;;;
2019/11/25 00:45:57;;;;;;;18.2;16.2;;;;;;;;;;;;;
2019/11/25 00:48:22;;;;;;;17.7;16;;;;;;;;;;;;;
2019/11/25 00:50:47;;;;;;;17.3;15.6;;;;;;;;;;;;;
2019/11/25 00:55:37;;;;;;;17.3;15.7;;;;;;;;;;;;;
2019/11/25 00:58:02;;;;;;;17.8;15.7;;;;;;;;;;;;;
2019/11/25 01:00:28;;;;;;;16.1;14.6;;;;;;;;;;;;;
2019/11/25 01:02:53;;;;;;;16.6;15;;;;;;;;;;;;;
2019/11/25 01:05:18;;;;;;;17.3;15.5;;;;;;;;;;;;;
2019/11/25 01:07:43;;;;;;;17.8;15.9;;;;;;;;;;;;;
2019/11/25 01:10:08;;;;;;;18;16.2;;;;;;;;;;;;;
2019/11/25 01:12:33;;;;;;;17.1;15.5;;;;;;;;;;;;;
2019/11/25 01:14:59;;;;;;;17.1;15.4;;;;;;;;;;;;;
2019/11/25 01:17:23;;;;;;;17.3;15.6;;;;;;;;;;;;;
2019/11/25 01:19:48;;;;;;;17.5;15.7;;;;;;;;;;;;;
2019/11/25 01:22:13;;;;;;;17.3;15.6;;;;;;;;;;;;;
2019/11/25 01:24:38;;;;;;;16.9;15.3;;;;;;;;;;;;;
2019/11/25 01:27:04;;;;;;;16.4;14.8;;;;;;;;;;;;;
2019/11/25 01:29:29;;;;;;;17;15.4;;;;;;;;;;;;;
2019/11/25 01:31:54;;;;;;;17.1;15.5;;;;;;;;;;;;;
2019/11/25 01:34:19;;;;;;;17.4;15.6;;;;;;;;;;;;;
2019/11/25 01:36:44;;;;;;;17.3;15.6;;;;;;;;;;;;;
2019/11/25 01:39:09;;;;;;;17.4;15.7;;;;;;;;;;;;;
2019/11/25 01:41:34;;;;;;;17.6;15.8;;;;;;;;;;;;;
2019/11/25 01:43:59;;;;;;;17.5;15.8;;;;;;;;;;;;;
2019/11/25 01:46:24;;;;;;;17.2;15.5;;;;;;;;;;;;;
2019/11/25 01:48:49;;;;;;;17.4;15.6;;;;;;;;;;;;;
2019/11/25 01:51:15;;;;;;;17.3;15.7;;;;;;;;;;;;;
2019/11/25 01:53:40;;;;;;;17.7;16.1;;;;;;;;;;;;;
2019/11/25 01:56:05;;;;;;;17.9;16.1;;;;;;;;;;;;;
2019/11/25 01:58:30;;;;;;;17.4;15.7;;;;;;;;;;;;;
2019/11/25 02:00:55;;;;;;;18.4;16.5;;;;;;;;;;;;;
2019/11/25 02:03:20;;;;;;;19.5;17.6;;;;;;;;;;;;;
2019/11/25 02:05:45;;;;;;;18.5;16.6;;;;;;;;;;;;;
2019/11/25 02:08:10;;;;;;;18.8;16.8;;;;;;;;;;;;;
2019/11/25 02:10:35;;;;;;;18.3;16.4;;;;;;;;;;;;;
2019/11/25 02:14:19;;;;;;;18.5;16.6;;;;;;;;;;;;;
2019/11/25 02:16:44;;;;;;;19.2;16.7;;;;;;;;;;;;;
2019/11/25 02:19:09;;;;;;;18.6;16.6;;;;;;;;;;;;;
2019/11/25 02:21:34;;;;;;;17;15.2;;;;;;;;;;;;;
2019/11/25 02:24:00;;;;;;;16.9;15.1;;;;;;;;;;;;;
2019/11/25 02:26:25;;;;;;;17;15.2;;;;;;;;;;;;;
2019/11/25 02:28:50;;;;;;;17;15.3;;;;;;;;;;;;;
2019/11/25 02:31:15;;;;;;;17.6;15.8;;;;;;;;;;;;;
2019/11/25 02:33:40;;;;;;;20.6;16.4;;;;;;;;;;;;;
2019/11/25 02:36:05;;;;;;;18.7;16.8;;;;;;;;;;;;;
2019/11/25 02:38:30;;;;;;;18;16.1;;;;;;;;;;;;;
2019/11/25 02:40:55;;;;;;;17.1;15.3;;;;;;;;;;;;;
2019/11/25 02:43:20;;;;;;;17.5;15.5;;;;;;;;;;;;;
2019/11/25 02:45:45;;;;;;;16.4;14.7;;;;;;;;;;;;;
2019/11/25 02:48:10;;;;;;;17.5;15.5;;;;;;;;;;;;;
2019/11/25 02:50:36;;;;;;;17.9;15.7;;;;;;;;;;;;;
2019/11/25 02:53:00;;;;;;;17;15.2;;;;;;;;;;;;;
2019/11/25 02:55:26;;;;;;;15.9;14;;;;;;;;;;;;;
2019/11/25 02:57:51;;;;;;;17.1;15;;;;;;;;;;;;;
2019/11/25 03:00:16;;;;;;;15.5;14;;;;;;;;;;;;;
2019/11/25 03:02:41;;;;;;;14.9;13.4;;;;;;;;;;;;;
2019/11/25 03:05:06;;;;;;;15;13.5;;;;;;;;;;;;;
2019/11/25 03:07:31;;;;;;;13.7;12.4;;;;;;;;;;;;;
2019/11/25 03:09:56;;;;;;;15.1;13.6;;;;;;;;;;;;;
2019/11/25 03:12:21;;;;;;;15.3;13.8;;;;;;;;;;;;;
2019/11/25 03:14:46;;;;;;;14.5;13.1;;;;;;;;;;;;;
2019/11/25 03:17:12;;;;;;;15.7;14.1;;;;;;;;;;;;;
2019/11/25 03:19:37;;;;;;;15.8;14.3;;;;;;;;;;;;;
2019/11/25 03:22:02;;;;;;;15;13.5;;;;;;;;;;;;;
2019/11/25 03:24:37;;;;;;;15.1;13.6;;;;;;;;;;;;;
2019/11/25 03:26:52;;;;;;;14.8;13.4;;;;;;;;;;;;;
2019/11/25 03:29:17;;;;;;;15.6;14.1;;;;;;;;;;;;;
2019/11/25 03:31:42;;;;;;;14.8;13.3;;;;;;;;;;;;;
2019/11/25 03:34:07;;;;;;;15.1;13.7;;;;;;;;;;;;;
2019/11/25 03:36:33;;;;;;;15.3;13.8;;;;;;;;;;;;;
2019/11/25 03:38:58;;;;;;;14.5;13;;;;;;;;;;;;;
2019/11/25 03:41:23;;;;;;;15.4;13.8;;;;;;;;;;;;;
2019/11/25 03:43:48;;;;;;;16.1;14.5;;;;;;;;;;;;;
2019/11/25 03:46:13;;;;;;;16.1;14.5;;;;;;;;;;;;;
2019/11/25 03:48:38;;;;;;;16.7;14.4;;;;;;;;;;;;;
2019/11/25 03:51:03;;;;;;;17.8;15;;;;;;;;;;;;;
2019/11/25 03:53:28;;;;;;;16.4;14.1;;;;;;;;;;;;;
2019/11/25 03:55:53;;;;;;;15.5;13.9;;;;;;;;;;;;;
2019/11/25 03:58:18;;;;;;;17.7;15.8;;;;;;;;;;;;;
2019/11/25 04:02:28;;;;;;;16.5;14.7;;;;;;;4.37;97.91113;952.9386;;;;
2019/11/25 04:04:53;;;;;;;18.3;15.6;;;;;;;4.02;99.63281;952.9109;;;;
2019/11/25 04:07:18;;;;;;;20.1;16.8;;;;;;;4.08;100;952.8847;;;;
2019/11/25 04:09:43;;;;;;;19.5;15.8;;;;;;;4.28;99.30859;952.9211;;;;
2019/11/25 04:12:08;;;;;;;18.1;16.2;;;;;;;4.4;98.88379;952.8983;;;;
2019/11/25 04:14:33;;;;;;;19.6;17.5;;;;;;;4.35;99.17773;952.8781;;;;
2019/11/25 04:16:59;;;;;;;22.1;18.8;;;;;;;4.31;99.5752;952.8894;;;;
2019/11/25 04:19:24;;;;;;;21;18.7;;;;;;;4.35;99.5293;952.8845;;;;
2019/11/25 04:21:49;;;;;;;22.7;19.4;;;;;;;4.39;99.20898;952.8929;;;;
2019/11/25 04:24:14;;;;;;;26.8;20.9;;;;;;;4.48;99.15039;952.9481;;;;
2019/11/25 04:26:39;;;;;;;24.7;20.9;;;;;;;4.39;99.36719;952.9688;;;;
2019/11/25 04:29:04;;;;;;;25.9;21.5;;;;;;;4.32;99.55469;952.9852;;;;
2019/11/25 04:31:29;;;;;;;31.7;22.1;;;;;;;4.31;99.81348;953.0503;;;;
2019/11/25 04:33:54;;;;;;;31.7;22.7;;;;;;;4.4;99.75488;953.0588;;;;
2019/11/25 04:36:19;;;;;;;28.4;22.9;;;;;;;4.39;100;953.1002;;;;
2019/11/25 04:38:44;;;;;;;29.6;23.8;;;;;;;4.35;100;953.1064;;;;
2019/11/25 04:41:10;;;;;;;30.7;23.8;;;;;;;4.27;100;953.085;;;;
2019/11/25 04:44:05;;;;;;;32.9;24.4;;;;;;;4.45;100;953.0941;;;;
2019/11/25 04:46:37;;;;;;;29.6;23.1;;;;;;;4.46;100;953.0995;;;;
2019/11/25 04:49:07;;;;;;;29.7;23;;;;;;;4.27;100;953.0834;;;;
2019/11/25 04:51:32;;;;;;;34;24.5;;;;;;;4.32;100;953.0538;;;;
2019/11/25 04:53:57;;;;;;;34.5;24.5;;;;;;;4.27;100;953.0472;;;;
2019/11/25 04:56:22;;;;;;;43.8;27.2;;;;;;;4.11;100;953.0349;;;;
2019/11/25 04:58:47;;;;;;;46.5;27.7;;;;;;;4.17;100;953.0311;;;;
2019/11/25 05:01:12;;;;;;;54.6;27;;;;;;;4.21;100;953.0516;;;;
2019/11/25 05:03:37;;;;;;;33.1;26.8;;;;;;;4.31;100;953.1003;;;;
2019/11/25 05:06:02;;;;;;;36.4;26.8;;;;;;;4.4;100;953.1266;;;;
2019/11/25 05:08:27;;;;;;;39.1;26.5;;;;;;;4.5;100;953.0691;;;;
2019/11/25 05:10:52;;;;;;;48.9;26.6;;;;;;;4.37;100;953.1378;;;;
2019/11/25 05:13:17;;;;;;;45.8;26.6;;;;;;;4.4;100;953.1555;;;;
2019/11/25 05:15:42;;;;;;;39.6;29.3;;;;;;;4.34;100;953.1917;;;;
2019/11/25 05:18:07;;;;;;;42.7;28.1;;;;;;;4.37;100;953.1239;;;;
2019/11/25 05:20:33;;;;;;;46;27.9;;;;;;;4.41;100;953.093;;;;
2019/11/25 05:22:58;;;;;;;40.5;26.1;;;;;;;4.37;100;953.1675;;;;
2019/11/25 05:25:23;;;;;;;43.5;28.3;;;;;;;4.3;100;953.1828;;;;
2019/11/25 05:27:48;;;;;;;50.6;27.8;;;;;;;4.26;100;953.1396;;;;
2019/11/25 05:30:13;;;;;;;45.9;29.1;;;;;;;4.3;100;953.2029;;;;
2019/11/25 05:32:38;;;;;;;39.1;27.7;;;;;;;4.44;100;953.2222;;;;
2019/11/25 05:35:03;;;;;;;38.1;28.2;;;;;;;4.45;100;953.2458;;;;
2019/11/25 05:37:28;;;;;;;33;27.3;;;;;;;4.66;100;953.2902;;;;
2019/11/25 05:39:54;;;;;;;38.9;26.4;;;;;;;4.53;100;953.2869;;;;
2019/11/25 05:42:19;;;;;;;40.4;27.5;;;;;;;4.5;100;953.4288;;;;
2019/11/25 05:44:44;;;;;;;40;26.3;;;;;;;4.65;100;953.3949;;;;
2019/11/25 05:47:09;;;;;;;33.7;25;;;;;;;4.71;100;953.4669;;;;
2019/11/25 05:49:34;;;;;;;41.9;26.1;;;;;;;4.65;100;953.4723;;;;
2019/11/25 05:51:59;;;;;;;50.6;27.6;;;;;;;4.47;100;953.5465;;;;
2019/11/25 05:54:24;;;;;;;42.4;28.2;;;;;;;4.43;100;953.5196;;;;
2019/11/25 05:56:49;;;;;;;39.2;27.3;;;;;;;4.63;100;953.6153;;;;
2019/11/25 05:59:14;;;;;;;37.8;26.2;;;;;;;4.68;100;953.6316;;;;
2019/11/25 06:01:43;;;;;;;39.5;26.2;;;;;;;4.5;100;953.599;;;;
2019/11/25 06:04:08;;;;;;;27.6;22.5;;;;;;;4.75;100;953.6231;;;;
2019/11/25 06:06:33;;;;;;;30.6;22;;;;;;;4.73;100;953.5856;;;;
2019/11/25 06:09:15;;;;;;;37.6;22.9;;;;;;;4.4;100;953.646;;;;
2019/11/25 06:11:41;;;;;;;31.3;24.3;;;;;;;4.58;100;953.6608;;;;
2019/11/25 06:14:06;;;;;;;30.4;23.9;;;;;;;4.63;100;953.7225;;;;
2019/11/25 06:16:31;;;;;;;32.6;25.3;;;;;;;4.38;100;953.6719;;;;
2019/11/25 06:18:57;;;;;;;42.8;26.5;;;;;;;4.25;100;953.687;;;;
2019/11/25 06:21:22;;;;;;;41.7;28.1;;;;;;;4.34;100;953.6649;;;;
2019/11/25 06:23:47;;;;;;;40.7;28.7;;;;;;;4.4;100;953.6347;;;;
2019/11/25 06:26:12;;;;;;;39.3;29.3;;;;;;;4.49;100;953.7142;;;;
2019/11/25 06:28:37;;;;;;;39.2;30;;;;;;;4.48;100;953.725;;;;
2019/11/25 06:31:02;;;;;;;45.4;29.6;;;;;;;4.45;100;953.7135;;;;
2019/11/25 06:33:27;;;;;;;41.3;29.4;;;;;;;4.5;100;953.6925;;;;
2019/11/25 06:35:52;;;;;;;40.1;28.7;;;;;;;4.62;100;953.7126;;;;
2019/11/25 06:38:17;;;;;;;40.9;28.4;;;;;;;4.56;100;953.6986;;;;
2019/11/25 06:40:42;;;;;;;40.9;28.2;;;;;;;4.56;100;953.6599;;;;
2019/11/25 06:43:08;;;;;;;46.5;31.5;;;;;;;4.52;100;953.7123;;;;
2019/11/25 06:45:33;;;;;;;39.2;29.6;;;;;;;4.64;100;953.7456;;;;
2019/11/25 06:47:58;;;;;;;41.8;29.9;;;;;;;4.66;100;953.7234;;;;
2019/11/25 06:50:24;;;;;;;43.6;30.2;;;;;;;4.65;100;953.7708;;;;
2019/11/25 06:52:49;;;;;;;44.8;31.3;;;;;;;4.65;100;953.7724;;;;
2019/11/25 06:55:14;;;;;;;43.9;31.1;;;;;;;4.67;100;953.7635;;;;
2019/11/25 06:57:39;;;;;;;40.4;28.4;;;;;;;4.66;100;953.8566;;;;
2019/11/25 07:00:05;;;;;;;49.5;30.7;;;;;;;4.7;100;953.8871;;;;
2019/11/25 07:02:30;;;;;;;50.1;31;;;;;;;4.73;100;953.9108;;;;
2019/11/25 07:04:55;;;;;;;43.8;31.6;;;;;;;4.83;100;953.9533;;;;
2019/11/25 07:07:20;;;;;;;47.6;29.3;;;;;;;4.84;100;953.9641;;;;
2019/11/25 07:09:45;;;;;;;48.9;29.7;;;;;;;4.81;100;954.0461;;;;
2019/11/25 07:12:10;;;;;;;49;30.5;;;;;;;4.82;100;954.0694;;;;
2019/11/25 07:14:35;;;;;;;58.1;32.9;;;;;;;4.75;100;954.0556;;;;
2019/11/25 07:17:00;;;;;;;46.2;31;;;;;;;4.83;100;954.0428;;;;
2019/11/25 07:19:25;;;;;;;58.5;33.5;;;;;;;4.79;100;953.9941;;;;
2019/11/25 07:22:50;;;;;;;66.5;36;;;;;;;4.69;100;953.9528;;;;
2019/11/25 07:25:33;;;;;;;67.4;36.2;;;;;;;4.33;100;953.9807;;;;
2019/11/25 07:27:57;;;;;;;69.8;40.7;;;;;;;4.35;100;953.9789;;;;
2019/11/25 07:30:22;;;;;;;80.8;41.5;;;;;;;4.48;100;953.938;;;;
2019/11/25 07:32:47;;;;;;;82.4;42.9;;;;;;;4.47;100;953.9507;;;;
2019/11/25 07:35:12;;;;;;;62.3;40.2;;;;;;;4.45;100;954.0435;;;;
2019/11/25 07:37:40;;;;;;;68;39.7;;;;;;;4.49;100;954.0098;;;;
2019/11/25 07:40:05;;;;;;;64.1;38.6;;;;;;;4.66;100;953.9567;;;;
2019/11/25 07:42:30;;;;;;;58.1;37.8;;;;;;;4.76;100;953.9995;;;;
2019/11/25 07:44:55;;;;;;;74.1;40.4;;;;;;;4.56;100;953.9777;;;;
2019/11/25 07:47:20;;;;;;;62.8;38.6;;;;;;;4.55;100;953.9389;;;;
2019/11/25 07:49:45;;;;;;;55.6;35.9;;;;;;;4.77;100;953.8855;;;;
2019/11/25 07:52:11;;;;;;;57.1;36.7;;;;;;;4.89;100;953.8091;;;;
2019/11/25 07:54:36;;;;;;;57.4;35.5;;;;;;;4.89;100;953.793;;;;
2019/11/25 07:57:03;;;;;;;46.3;33.5;;;;;;;5.06;100;953.8063;;;;
2019/11/25 07:59:29;;;;;;;51.3;35.4;;;;;;;4.95;100;953.8109;;;;
2019/11/25 08:01:54;;;;;;;90.3;41.6;;;;;;;4.65;100;953.8653;;;;
2019/11/25 08:04:26;;;;;;;112.3;44.1;;;;;;;4.51;100;953.8848;;;;
2019/11/25 08:07:07;;;;;;;67.3;39.3;;;;;;;4.71;100;953.8995;;;;
2019/11/25 08:09:39;;;;;;;48.1;33.7;;;;;;;5.07;100;953.926;;;;
2019/11/25 08:12:07;;;;;;;50;31.4;;;;;;;5.12;100;953.9512;;;;
2019/11/25 08:14:41;;;;;;;50.8;31.9;;;;;;;5.14;100;953.9423;;;;
2019/11/25 08:17:11;;;;;;;45.4;30.7;;;;;;;5.33;100;953.9341;;;;
2019/11/25 08:19:37;;;;;;;44.9;29;;;;;;;5.44;100;953.9088;;;;
2019/11/25 08:22:02;;;;;;;42.2;28.6;;;;;;;5.49;100;953.9434;;;;
2019/11/25 08:24:27;;;;;;;46;30.4;;;;;;;5.35;100;953.9506;;;;
2019/11/25 08:26:52;;;;;;;51.5;29.1;;;;;;;5.25;100;953.88;;;;
2019/11/25 08:29:17;;;;;;;46.7;29.8;;;;;;;5.3;100;953.8484;;;;
2019/11/25 08:31:42;;;;;;;45.3;30.1;;;;;;;5.16;100;953.8561;;;;
2019/11/25 08:34:07;;;;;;;56.6;30.6;;;;;;;5.14;100;953.8142;;;;
2019/11/25 08:36:32;;;;;;;46.7;32;;;;;;;5.13;100;953.8173;;;;
2019/11/25 08:38:57;;;;;;;50.2;31.9;;;;;;;5.12;100;953.7693;;;;
2019/11/25 08:41:27;;;;;;;61.6;34.4;;;;;;;5.03;100;953.7659;;;;
2019/11/25 08:43:52;;;;;;;50.7;34;;;;;;;5.13;100;953.8336;;;;
2019/11/25 08:46:17;;;;;;;64;36.8;;;;;;;4.91;100;953.8818;;;;
2019/11/25 08:48:42;;;;;;;65.4;36.3;;;;;;;4.95;100;953.9247;;;;
2019/11/25 08:51:21;;;;;;;60.8;35.5;;;;;;;4.97;100;953.9305;;;;
2019/11/25 08:53:47;;;;;;;56.2;35.7;;;;;;;4.92;100;953.9327;;;;
2019/11/25 08:56:12;;;;;;;51.4;34.4;;;;;;;4.92;100;953.9797;;;;
2019/11/25 08:58:37;;;;;;;47.8;33.2;;;;;;;5.17;100;953.9895;;;;
2019/11/25 09:01:05;;;;;;;47;31.4;;;;;;;5.19;100;953.9282;;;;
2019/11/25 09:03:30;;;;;;;51.5;32.9;;;;;;;5.2;100;953.9509;;;;
2019/11/25 09:05:55;;;;;;;47.7;32.7;;;;;;;5.09;100;954.0334;;;;
2019/11/25 09:08:20;;;;;;;51.1;33.7;;;;;;;4.98;100;954.0073;;;;
2019/11/25 09:10:45;;;;;;;46;32;;;;;;;5.09;100;954.0439;;;;
2019/11/25 09:13:14;;;;;;;46.8;32.8;;;;;;;5.1;100;953.9739;;;;
2019/11/25 09:15:40;;;;;;;44.9;30.6;;;;;;;5.18;100;953.9797;;;;
2019/11/25 09:18:06;;;;;;;43.5;31.8;;;;;;;5.13;100;953.9224;;;;
2019/11/25 09:20:31;;;;;;;46.1;31.8;;;;;;;5.12;100;953.9487;;;;
2019/11/25 09:22:56;;;;;;;49.9;33.1;;;;;;;5.1;100;953.9174;;;;
2019/11/25 09:25:21;;;;;;;55.7;34.6;;;;;;;5.03;100;953.8741;;;;
2019/11/25 09:28:18;;;;;;;44.2;32.5;;;;;;;4.99;100;953.9001;;;;
2019/11/25 09:30:43;;;;;;;52.2;35.7;;;;;;;5.1;100;953.8978;;;;
2019/11/25 09:33:08;;;;;;;44.9;32.2;;;;;;;5.35;100;953.9239;;;;
2019/11/25 09:35:34;;;;;;;46.5;32.4;;;;;;;5.41;100;953.9232;;;;
2019/11/25 09:38:00;;;;;;;49;32.3;;;;;;;5.49;100;953.8982;;;;
2019/11/25 09:40:24;;;;;;;44.9;31.7;;;;;;;5.3;100;953.9275;;;;
2019/11/25 09:42:49;;;;;;;47.3;33.2;;;;;;;5.47;100;953.9726;;;;
2019/11/25 09:45:16;;;;;;;42.5;30.9;;;;;;;5.54;100;953.9175;;;;
2019/11/25 09:47:41;;;;;;;44.1;30.8;;;;;;;5.6;100;953.9363;;;;
2019/11/25 09:50:06;;;;;;;44.8;31.1;;;;;;;5.6;100;953.9322;;;;
2019/11/25 09:55:04;;;;;;;41.3;29.8;;;;;;;5.93;100;953.8981;;;;
2019/11/25 09:57:22;;;;;;;43.4;29.8;;;;;;;5.74;100;953.8907;;;;
2019/11/25 09:59:47;;;;;;;42.1;32.1;;;;;;;5.59;100;953.8957;;;;
2019/11/25 10:02:12;;;;;;;45.8;31.6;;;;;;;5.52;100;953.8643;;;;
2019/11/25 10:04:37;;;;;;;47.1;32.3;;;;;;;5.35;100;953.9408;;;;
2019/11/25 10:07:02;;;;;;;53.4;35.9;;;;;;;5.19;100;953.9611;;;;
2019/11/25 10:09:28;;;;;;;48.2;34.3;;;;;;;5.42;100;953.9617;;;;
2019/11/25 10:11:53;;;;;;;45.6;33;;;;;;;5.65;100;953.956;;;;
2019/11/25 10:14:18;;;;;;;43.8;32.6;;;;;;;5.53;100;953.9017;;;;
2019/11/25 10:16:44;;;;;;;41.4;31.4;;;;;;;5.54;100;953.8835;;;;
2019/11/25 10:19:10;;;;;;;43.3;31.6;;;;;;;5.55;100;953.8621;;;;
2019/11/25 10:21:35;;;;;;;43.2;31.6;;;;;;;5.63;100;953.8465;;;;
2019/11/25 10:24:01;;;;;;;47.4;32.1;;;;;;;5.59;100;953.867;;;;
2019/11/25 10:26:26;;;;;;;45;33;;;;;;;5.59;100;953.8663;;;;
2019/11/25 10:28:52;;;;;;;44.7;32.9;;;;;;;5.45;100;953.7841;;;;
2019/11/25 10:31:17;;;;;;;43.5;32.3;;;;;;;5.52;100;953.748;;;;
2019/11/25 10:33:44;;;;;;;40.9;30.8;;;;;;;5.64;100;953.7255;;;;
2019/11/25 10:36:10;;;;;;;47.4;32;;;;;;;5.86;99.75586;953.7614;;;;
2019/11/25 10:38:35;;;;;;;48.2;34.3;;;;;;;5.71;100;953.7496;;;;
2019/11/25 10:41:00;;;;;;;44.3;33.9;;;;;;;5.75;100;953.765;;;;
2019/11/25 10:43:31;;;;;;;45.6;34.7;;;;;;;5.7;100;953.7531;;;;
2019/11/25 10:45:56;;;;;;;42.7;32.3;;;;;;;5.78;100;953.7238;;;;
2019/11/25 10:48:21;;;;;;;45.2;33.7;;;;;;;5.7;100;953.6924;;;;
2019/11/25 10:50:46;;;;;;;48.2;36.3;;;;;;;5.55;100;953.6633;;;;
2019/11/25 10:53:11;;;;;;;46.8;33.5;;;;;;;5.71;100;953.5843;;;;
2019/11/25 10:55:36;;;;;;;43;32.9;;;;;;;5.92;100;953.6337;;;;
2019/11/25 10:58:01;;;;;;;40.6;31;;;;;;;6;100;953.6047;;;;
2019/11/25 11:00:26;;;;;;;41.9;32.3;;;;;;;6.09;100;953.5925;;;;
2019/11/25 11:02:52;;;;;;;43.3;33.1;;;;;;;5.91;100;953.6384;;;;
2019/11/25 11:05:16;;;;;;;45.6;34;;;;;;;5.98;100;953.6049;;;;
2019/11/25 11:07:41;;;;;;;45;34.7;;;;;;;5.95;100;953.5644;;;;
2019/11/25 11:10:06;;;;;;;53.1;38.7;;;;;;;5.85;100;953.5365;;;;
2019/11/25 11:12:31;;;;;;;54;38.7;;;;;;;5.42;100;953.4883;;;;
2019/11/25 11:14:58;;;;;;;52;39.8;;;;;;;5.36;100;953.527;;;;
2019/11/25 11:18:34;;;;;;;52.2;39.7;;;;;;;5.53;100;953.538;;;;
2019/11/25 11:21:01;;;;;;;60.2;44.3;;;;;;;5.52;100;953.5499;;;;
2019/11/25 11:23:26;;;;;;;59.1;42.6;;;;;;;5.62;100;953.5737;;;;
2019/11/25 11:25:51;;;;;;;52.2;40.2;;;;;;;5.79;100;953.5616;;;;
2019/11/25 11:28:16;;;;;;;65.7;45.9;;;;;;;5.65;100;953.509;;;;
2019/11/25 11:30:41;;;;;;;60.5;43;;;;;;;5.57;100;953.5153;;;;
2019/11/25 11:33:08;;;;;;;71.2;46.4;;;;;;;5.43;100;953.4749;;;;
2019/11/25 11:35:33;;;;;;;59.5;43.8;;;;;;;5.64;100;953.449;;;;
2019/11/25 11:37:58;;;;;;;61.8;44.6;;;;;;;5.62;100;953.4695;;;;
2019/11/25 11:40:23;;;;;;;65.3;45.3;;;;;;;5.6;100;953.4392;;;;
2019/11/25 11:42:49;;;;;;;66.2;46.1;;;;;;;5.52;100;953.4643;;;;
2019/11/25 11:45:15;;;;;;;65;45.4;;;;;;;5.44;100;953.4651;;;;
2019/11/25 11:47:46;;;;;;;67.8;45.3;;;;;;;5.48;100;953.5013;;;;
2019/11/25 11:50:20;;;;;;;64.7;44;;;;;;;5.53;100;953.4734;;;;
2019/11/25 11:52:52;;;;;;;73.4;48.7;;;;;;;5.39;100;953.493;;;;
2019/11/25 11:55:17;;;;;;;64.5;45.5;;;;;;;5.47;100;953.4944;;;;
2019/11/25 11:57:42;;;;;;;68.2;45.8;;;;;;;5.48;100;953.4949;;;;
2019/11/25 12:00:07;;;;;;;65.6;44.9;;;;;;;5.44;100;953.5044;;;;
2019/11/25 12:02:36;;;;;;;60;44.2;;;;;;;5.4;100;953.5425;;;;
2019/11/25 12:05:01;;;;;;;72.5;46.7;;;;;;;5.42;100;953.5521;;;;
2019/11/25 12:07:29;;;;;;;54.7;41.1;;;;;;;5.56;100;953.5619;;;;
2019/11/25 12:09:54;;;;;;;81.2;46.6;;;;;;;5.33;100;953.5333;;;;
2019/11/25 12:12:19;;;;;;;67.4;46.4;;;;;;;5.39;100;953.5698;;;;
2019/11/25 12:14:44;;;;;;;75.8;47.6;;;;;;;5.53;100;953.4994;;;;
2019/11/25 12:17:09;;;;;;;77.1;50.7;;;;;;;5.52;100;953.4691;;;;
2019/11/25 12:19:34;;;;;;;72.4;51.3;;;;;;;5.47;100;953.4702;;;;
2019/11/25 12:22:01;;;;;;;85.2;55.1;;;;;;;5.41;100;953.4603;;;;
2019/11/25 12:26:50;;;;;;;67;48.6;;;;;;;5.67;100;953.4969;;;;
2019/11/25 12:29:15;;;;;;;68.2;48.9;;;;;;;5.48;100;953.4133;;;;
2019/11/25 12:31:41;;;;;;;69.8;49.7;;;;;;;5.65;100;953.4451;;;;
2019/11/25 12:34:08;;;;;;;62.8;47.1;;;;;;;5.67;100;953.4345;;;;
2019/11/25 12:36:33;;;;;;;64.8;47.3;;;;;;;5.72;100;953.3859;;;;
2019/11/25 12:38:58;;;;;;;69.1;48.1;;;;;;;5.67;100;953.3359;;;;
2019/11/25 12:41:23;;;;;;;63.3;46.7;;;;;;;5.59;100;953.3102;;;;
2019/11/25 12:43:48;;;;;;;85.6;51.9;;;;;;;5.43;100;953.3123;;;;
2019/11/25 12:46:25;;;;;;;75.4;50.9;;;;;;;5.42;100;953.3873;;;;
2019/11/25 12:48:52;;;;;;;70.3;48.1;;;;;;;5.48;100;953.3412;;;;
2019/11/25 12:51:17;;;;;;;68.1;49.1;;;;;;;5.46;100;953.365;;;;
2019/11/25 12:53:42;;;;;;;76.1;52.4;;;;;;;5.46;100;953.3528;;;;
2019/11/25 12:56:08;;;;;;;78.2;53.8;;;;;;;5.47;100;953.3287;;;;
2019/11/25 12:58:33;;;;;;;80.4;55.6;;;;;;;5.47;100;953.3456;;;;
2019/11/25 13:01:00;;;;;;;89.2;56.1;;;;;;;5.15;100;953.361;;;;
2019/11/25 13:03:56;;;;;;;89.6;55.9;;;;;;;5.26;100;953.3308;;;;
2019/11/25 13:06:21;;;;;;;82;56.7;;;;;;;5.32;100;953.3954;;;;
2019/11/25 13:08:46;;;;;;;107.2;59.8;;;;;;;5.19;100;953.3555;;;;
2019/11/25 13:11:11;;;;;;;87.8;57.3;;;;;;;5.29;100;953.4092;;;;
2019/11/25 13:13:36;;;;;;;90.4;56.1;;;;;;;5.27;100;953.4347;;;;
2019/11/25 13:16:02;;;;;;;109.2;60.7;;;;;;;5.13;100;953.3959;;;;
2019/11/25 13:18:27;;;;;;;87.8;57.6;;;;;;;5.25;100;953.4519;;;;
2019/11/25 13:20:52;;;;;;;82.4;54.7;;;;;;;5.31;100;953.4568;;;;
2019/11/25 13:23:17;;;;;;;83.9;56.2;;;;;;;5.29;100;953.478;;;;
2019/11/25 13:25:42;;;;;;;83.1;57.3;;;;;;;5.38;100;953.4199;;;;
2019/11/25 13:28:07;;;;;;;95.1;57.8;;;;;;;5.19;100;953.462;;;;
2019/11/25 13:30:32;;;;;;;86.4;57.6;;;;;;;5.25;100;953.4559;;;;
2019/11/25 13:32:57;;;;;;;81.6;55.5;;;;;;;5.36;100;953.4841;;;;
2019/11/25 13:35:22;;;;;;;75.7;52.8;;;;;;;5.51;100;953.4537;;;;
2019/11/25 13:37:48;;;;;;;74.5;51;;;;;;;5.47;100;953.5145;;;;
2019/11/25 13:40:13;;;;;;;75.7;52.1;;;;;;;5.35;100;953.5867;;;;
2019/11/25 13:42:38;;;;;;;79.7;54.5;;;;;;;5.33;100;953.5714;;;;
2019/11/25 13:45:03;;;;;;;68.3;50.3;;;;;;;5.49;100;953.5759;;;;
2019/11/25 13:47:28;;;;;;;84.3;55.2;;;;;;;5.3;100;953.5833;;;;
2019/11/25 13:49:55;;;;;;;81.2;53.5;;;;;;;5.31;100;953.5739;;;;
2019/11/25 13:52:20;;;;;;;98.8;58.2;;;;;;;5.17;100;953.5761;;;;
2019/11/25 13:54:45;;;;;;;91.7;57.4;;;;;;;5.06;100;953.6005;;;;
2019/11/25 13:57:10;;;;;;;88.1;56.6;;;;;;;5.11;100;953.5906;;;;
2019/11/25 13:59:35;;;;;;;92.6;57.8;;;;;;;5.1;100;953.5847;;;;
2019/11/25 14:02:02;;;;;;;74.2;52.6;;;;;;;5.26;100;953.6063;;;;
2019/11/25 14:04:27;;;;;;;80.9;55.4;;;;;;;5.29;100;953.5706;;;;
2019/11/25 14:06:53;;;;;;;96.1;57.6;;;;;;;5.28;100;953.6053;;;;
2019/11/25 14:09:18;;;;;;;79.3;56.3;;;;;;;5.33;100;953.5914;;;;
2019/11/25 14:11:44;;;;;;;72.7;52;;;;;;;5.44;100;953.6178;;;;
2019/11/25 14:14:09;;;;;;;77.1;52.7;;;;;;;5.33;100;953.6086;;;;
2019/11/25 14:19:07;;;;;;;90.7;57.6;;;;;;;5.21;100;953.5912;;;;
2019/11/25 14:21:26;;;;;;;83.9;52.8;;;;;;;5.37;100;953.5934;;;;
2019/11/25 14:23:51;;;;;;;84;55.9;;;;;;;5.23;100;953.6566;;;;
2019/11/25 14:26:19;;;;;;;77.3;54.8;;;;;;;5.36;100;953.7047;;;;
2019/11/25 14:28:45;;;;;;;87.8;56.4;;;;;;;5.33;100;953.7474;;;;
2019/11/25 14:31:15;;;;;;;77.8;53.9;;;;;;;5.46;100;953.7171;;;;
2019/11/25 14:33:42;;;;;;;71.5;51.5;;;;;;;5.42;100;953.7533;;;;
2019/11/25 14:36:07;;;;;;;69.6;50.9;;;;;;;5.35;100;953.7486;;;;
2019/11/25 14:38:32;;;;;;;73.3;50.6;;;;;;;5.32;100;953.8251;;;;
2019/11/25 14:40:57;;;;;;;71.6;52.6;;;;;;;5.27;100;953.8425;;;;
2019/11/25 14:43:23;;;;;;;74.3;51.8;;;;;;;5.37;100;953.8132;;;;
2019/11/25 14:45:48;;;;;;;76.7;52.5;;;;;;;5.26;100;953.8599;;;;
2019/11/25 14:48:13;;;;;;;75.2;52.6;;;;;;;5.25;100;953.8582;;;;
2019/11/25 14:50:38;;;;;;;71.5;51;;;;;;;5.28;100;953.8806;;;;
2019/11/25 14:53:07;;;;;;;70.2;51.9;;;;;;;5.21;100;953.916;;;;
2019/11/25 14:55:32;;;;;;;67;49.7;;;;;;;5.37;100;953.9286;;;;
2019/11/25 14:57:58;;;;;;;62.3;46.2;;;;;;;5.57;100;953.8973;;;;
2019/11/25 15:00:23;;;;;;;65;46.6;;;;;;;5.46;100;953.8957;;;;
2019/11/25 15:02:50;;;;;;;65.3;45.6;;;;;;;5.38;100;953.9054;;;;
2019/11/25 15:05:15;;;;;;;60.6;44.8;;;;;;;5.47;100;953.9161;;;;
2019/11/25 15:07:40;;;;;;;56;44;;;;;;;5.46;100;953.9611;;;;
2019/11/25 15:10:06;;;;;;;77.8;45.6;;;;;;;5.32;100;953.9489;;;;
2019/11/25 15:12:31;;;;;;;67.9;46.5;;;;;;;5.15;100;953.9183;;;;
2019/11/25 15:14:56;;;;;;;58.3;44.3;;;;;;;5.24;100;953.9476;;;;
2019/11/25 15:17:22;;;;;;;56.1;40.2;;;;;;;5.37;100;953.9585;;;;
2019/11/25 15:19:47;;;;;;;58.6;41.3;;;;;;;5.26;100;953.9769;;;;
2019/11/25 15:22:12;;;;;;;46.9;36.3;;;;;;;5.41;100;953.9846;;;;
2019/11/25 15:24:37;;;;;;;45.8;35.7;;;;;;;5.37;100;954.0223;;;;
2019/11/25 15:27:03;;;;;;;47.1;37.6;;;;;;;5.15;100;954.0119;;;;
2019/11/25 15:29:32;;;;;;;40.8;33.6;;;;;;;5.31;100;954.0206;;;;
2019/11/25 15:31:57;;;;;;;41.2;33.9;;;;;;;5.37;100;953.9651;;;;
2019/11/25 15:34:22;;;;;;;42.5;35.3;;;;;;;5.21;100;953.9467;;;;
2019/11/25 15:36:47;;;;;;;44.1;36.3;;;;;;;5.17;100;953.9564;;;;
2019/11/25 15:39:12;;;;;;;40.8;34.4;;;;;;;5.27;100;953.9589;;;;
2019/11/25 15:41:38;;;;;;;42;34.6;;;;;;;5.32;100;954.0126;;;;
2019/11/25 15:44:07;;;;;;;41;34.4;;;;;;;5.36;100;954.0189;;;;
2019/11/25 15:46:32;;;;;;;42;33.2;;;;;;;5.18;100;953.9683;;;;
2019/11/25 15:48:57;;;;;;;43;34.9;;;;;;;5.22;100;953.9742;;;;
2019/11/25 15:51:22;;;;;;;45.7;34.1;;;;;;;5.17;100;953.9847;;;;
2019/11/25 15:53:49;;;;;;;49.3;37.6;;;;;;;5.05;100;953.9908;;;;
2019/11/25 15:56:14;;;;;;;51.5;38.9;;;;;;;4.87;100;954.0756;;;;
2019/11/25 15:58:41;;;;;;;45.6;36.9;;;;;;;5.13;100;954.0506;;;;
2019/11/25 16:01:06;;;;;;;42;35.3;;;;;;;5.3;100;954.0584;;;;
2019/11/25 16:03:31;;;;;;;47.7;36;;;;;;;5.2;100;954.0673;;;;
2019/11/25 16:05:58;;;;;;;46;35.1;;;;;;;5.22;100;954.0938;;;;
2019/11/25 16:08:23;;;;;;;45;35.9;;;;;;;5.19;100;954.109;;;;
2019/11/25 16:10:50;;;;;;;44.9;35.8;;;;;;;5.11;100;954.137;;;;
2019/11/25 16:13:16;;;;;;;40.6;33.9;;;;;;;5.29;100;954.1716;;;;
2019/11/25 16:15:41;;;;;;;43.8;34.7;;;;;;;5.27;100;954.1802;;;;